Time;durP1;ratioP1;P1;durP2;ratioP2;P2;SDS_P1;SDS_P2;PMS_P1;PMS_P2;Temp;Humidity;BMP_temperature;BMP_pressure;BME280_temperature;BME280_humidity;BME280_pressure;Samples;Min_cycle;Max_cycle;Signal;HPM_P1;HPM_P2
2022/04/06 00:00:05;;;;;;;;;3.00;3.00;;;;;12.46;50.04;100637.16;4959010;28;48105;-52
2022/04/06 00:02:30;;;;;;;;;1.75;1.75;;;;;12.38;50.07;100639.97;4960036;28;45343;-52
2022/04/06 00:04:56;;;;;;;;;2.25;2.25;;;;;12.36;49.97;100647.03;4959085;28;45468;-50
2022/04/06 00:07:21;;;;;;;;;5.00;4.25;;;;;12.31;49.77;100633.97;4958963;28;45550;-52
2022/04/06 00:09:46;;;;;;;;;4.00;3.00;;;;;12.27;49.89;100621.75;4952104;28;45937;-49
2022/04/06 00:12:12;;;;;;;;;3.00;2.75;;;;;12.29;49.97;100627.88;4958565;28;45431;-52
2022/04/06 00:14:37;;;;;;;;;2.50;2.50;;;;;12.31;49.88;100625.19;4960269;28;45342;-52
2022/04/06 00:17:05;;;;;;;;;1.00;1.00;;;;;12.26;49.94;100627.06;4959981;28;45303;-51
2022/04/06 00:19:35;;;;;;;;;3.00;1.50;;;;;12.27;49.81;100628.81;4960077;28;47035;-50
2022/04/06 00:22:00;;;;;;;;;4.00;4.00;;;;;12.24;49.80;100621.84;4959607;28;45298;-52
2022/04/06 00:24:27;;;;;;;;;3.75;3.00;;;;;12.24;50.09;100624.47;4963285;28;45390;-51
2022/04/06 00:26:52;;;;;;;;;2.00;2.00;;;;;12.19;49.89;100623.72;4961883;28;45589;-51
2022/04/06 00:29:18;;;;;;;;;2.50;2.00;;;;;12.22;49.82;100626.28;4963198;28;46196;-53
2022/04/06 00:31:43;;;;;;;;;2.75;2.75;;;;;12.18;49.81;100612.28;4962163;28;45351;-52
2022/04/06 00:34:08;;;;;;;;;2.75;2.00;;;;;12.16;49.88;100602.69;4962033;28;45350;-53
2022/04/06 00:36:34;;;;;;;;;4.00;2.25;;;;;12.18;49.98;100608.81;4962019;28;45465;-52
2022/04/06 00:38:59;;;;;;;;;4.75;2.25;;;;;12.22;50.04;100607.84;4962594;28;46032;-50
2022/04/06 00:41:24;;;;;;;;;3.00;2.00;;;;;12.19;50.01;100606.13;4963046;28;45396;-48
2022/04/06 00:44:15;;;;;;;;;1.75;1.75;;;;;12.19;49.99;100594.75;4963164;28;45298;-51
2022/04/06 00:46:42;;;;;;;;;2.00;2.00;;;;;12.19;49.69;100598.22;4961763;28;45465;-49
2022/04/06 00:49:11;;;;;;;;;2.75;2.00;;;;;12.14;49.67;100594.84;4962857;28;46210;-47
2022/04/06 00:51:45;;;;;;;;;3.00;3.00;;;;;12.10;49.64;100595.81;4953061;28;45268;-50
2022/04/06 00:54:15;;;;;;;;;1.75;1.75;;;;;12.07;49.73;100592.38;4958215;28;45370;-48
2022/04/06 00:56:42;;;;;;;;;2.00;2.00;;;;;12.04;49.64;100588.06;4961501;28;45467;-51
2022/04/06 00:59:09;;;;;;;;;4.25;3.50;;;;;12.05;49.43;100594.19;4962615;28;45451;-48
2022/04/06 01:01:35;;;;;;;;;2.25;1.75;;;;;12.02;49.54;100580.19;4962972;28;45307;-52
2022/04/06 01:04:00;;;;;;;;;1.25;1.25;;;;;12.00;49.47;100581.13;4962984;28;45335;-48
2022/04/06 01:06:26;;;;;;;;;2.00;1.50;;;;;11.93;49.40;100574.22;4963037;28;45504;-48
2022/04/06 01:08:52;;;;;;;;;2.00;2.00;;;;;11.93;49.48;100580.34;4962506;28;46212;-50
2022/04/06 01:11:19;;;;;;;;;1.25;1.00;;;;;11.91;49.52;100578.66;4954175;28;45658;-49
2022/04/06 01:13:48;;;;;;;;;1.25;1.25;;;;;11.88;49.39;100569.06;4961396;28;45786;-52
2022/04/06 01:16:15;;;;;;;;;3.50;1.00;;;;;11.85;49.42;100571.78;4962564;28;45402;-49
2022/04/06 01:18:41;;;;;;;;;4.00;3.50;;;;;11.82;49.57;100574.47;4962292;28;45397;-49
2022/04/06 01:21:08;;;;;;;;;4.75;3.75;;;;;11.78;49.51;100572.81;4961439;28;45370;-52
2022/04/06 01:23:34;;;;;;;;;2.75;2.50;;;;;11.75;49.56;100567.59;4961081;28;45493;-52
2022/04/06 01:26:00;;;;;;;;;2.50;1.50;;;;;11.73;49.49;100562.34;4960967;28;45326;-50
2022/04/06 01:28:26;;;;;;;;;2.75;2.75;;;;;11.65;49.60;100562.53;4962199;28;45363;-51
2022/04/06 01:30:51;;;;;;;;;2.50;2.00;;;;;11.63;49.66;100561.69;4941832;28;45321;-51
2022/04/06 01:33:18;;;;;;;;;3.00;1.25;;;;;11.57;49.57;100560.97;4959741;28;45401;-49
2022/04/06 01:35:44;;;;;;;;;2.50;2.00;;;;;11.49;49.87;100561.97;4961125;28;45324;-51
2022/04/06 01:38:09;;;;;;;;;1.00;1.00;;;;;11.46;49.73;100563.81;4962011;28;45421;-51
2022/04/06 01:40:35;;;;;;;;;1.00;1.00;;;;;11.37;49.91;100571.00;4961895;28;45327;-51
2022/04/06 01:43:01;;;;;;;;;1.75;1.75;;;;;11.32;49.86;100567.59;4962336;28;45250;-51
2022/04/06 01:45:27;;;;;;;;;3.00;2.75;;;;;11.29;49.78;100567.66;4962239;28;45295;-53
2022/04/06 01:47:55;;;;;;;;;1.00;1.00;;;;;11.27;49.89;100573.84;4960745;28;47633;-50
2022/04/06 01:53:05;;;;;;;;;4.00;2.50;;;;;11.18;49.96;100564.38;4950271;28;45336;-50
2022/04/06 01:55:31;;;;;;;;;1.00;1.00;;;;;11.14;49.60;100554.81;4959249;28;45204;-49
2022/04/06 01:57:57;;;;;;;;;3.75;2.75;;;;;11.08;50.09;100558.44;4949295;28;45552;-51
2022/04/06 02:00:22;;;;;;;;;2.00;2.00;;;;;11.03;50.10;100549.75;4961936;28;45412;-52
2022/04/06 02:02:52;;;;;;;;;1.75;1.75;;;;;10.99;50.21;100553.34;4961992;28;45278;-50
2022/04/06 02:05:19;;;;;;;;;4.75;2.25;;;;;10.94;50.05;100545.53;4943210;28;45798;-50
2022/04/06 02:07:48;;;;;;;;;4.25;3.00;;;;;10.91;49.97;100550.00;4961962;28;45262;-50
2022/04/06 02:10:15;;;;;;;;;3.50;2.00;;;;;10.86;50.11;100547.44;4951903;28;45603;-51
2022/04/06 02:12:41;;;;;;;;;2.50;1.50;;;;;10.82;50.17;100546.63;4961452;28;45415;-51
2022/04/06 02:15:10;;;;;;;;;4.00;3.00;;;;;10.82;50.02;100549.25;4959707;28;45667;-48
2022/04/06 02:17:36;;;;;;;;;1.00;1.00;;;;;10.79;50.20;100551.06;4958989;28;45734;-48
2022/04/06 02:20:02;;;;;;;;;4.75;3.25;;;;;10.73;50.30;100546.81;4961292;28;45376;-52
2022/04/06 02:22:28;;;;;;;;;2.50;2.00;;;;;10.71;50.46;100549.44;4961790;28;45319;-50
2022/04/06 02:24:53;;;;;;;;;2.50;1.00;;;;;10.69;50.47;100546.00;4961294;28;45334;-52
2022/04/06 02:27:19;;;;;;;;;2.25;2.25;;;;;10.67;50.42;100545.16;4960183;28;47289;-52
2022/04/06 02:29:45;;;;;;;;;1.50;1.00;;;;;10.64;50.46;100542.59;4973106;28;45439;-50
2022/04/06 02:32:10;;;;;;;;;3.50;3.25;;;;;10.62;50.35;100540.88;4961683;28;45233;-48
2022/04/06 02:34:37;;;;;;;;;5.25;4.00;;;;;10.58;50.28;100532.19;4961475;28;45342;-52
2022/04/06 02:37:03;;;;;;;;;3.00;3.00;;;;;10.55;50.43;100537.47;4961558;28;45312;-51
2022/04/06 02:39:31;;;;;;;;;1.00;1.00;;;;;10.51;50.50;100530.53;4961322;28;45267;-48
2022/04/06 02:41:57;;;;;;;;;1.00;1.00;;;;;10.48;50.40;100534.09;4961213;28;45397;-52
2022/04/06 02:44:22;;;;;;;;;1.25;1.00;;;;;10.46;50.36;100527.13;4961267;28;45292;-50
2022/04/06 02:46:48;;;;;;;;;2.00;2.00;;;;;10.44;50.38;100523.66;4960215;28;45396;-49
2022/04/06 02:49:15;;;;;;;;;1.00;1.00;;;;;10.37;50.51;100525.53;4944903;28;45391;-50
2022/04/06 02:51:40;;;;;;;;;2.50;1.25;;;;;10.35;50.73;100525.53;4952331;28;45429;-51
2022/04/06 02:54:06;;;;;;;;;2.25;2.25;;;;;10.31;50.63;100523.81;4956022;28;45909;-48
2022/04/06 02:56:32;;;;;;;;;2.00;1.50;;;;;10.31;50.65;100529.06;4960964;28;45459;-48
2022/04/06 02:58:58;;;;;;;;;3.25;2.00;;;;;10.29;50.81;100525.63;4961061;28;45271;-49
2022/04/06 03:01:24;;;;;;;;;2.00;2.00;;;;;10.28;50.63;100517.78;4959916;28;45240;-48
2022/04/06 03:03:49;;;;;;;;;2.00;2.00;;;;;10.27;50.76;100516.03;4959847;28;45436;-50
2022/04/06 03:06:15;;;;;;;;;2.50;2.50;;;;;10.24;50.89;100516.97;4961187;28;45329;-50
2022/04/06 03:08:41;;;;;;;;;3.25;1.75;;;;;10.26;50.95;100509.91;4960968;28;45347;-49
2022/04/06 03:11:06;;;;;;;;;2.00;2.00;;;;;10.26;51.05;100507.28;4960182;28;45408;-52
2022/04/06 03:13:33;;;;;;;;;4.00;3.00;;;;;10.26;50.97;100504.66;4959519;28;45653;-51
2022/04/06 03:15:58;;;;;;;;;2.00;2.00;;;;;10.28;50.79;100513.38;4959385;28;48216;-48
2022/04/06 03:18:24;;;;;;;;;1.00;1.00;;;;;10.28;50.78;100510.75;4960920;28;45294;-51
2022/04/06 03:20:49;;;;;;;;;2.00;1.25;;;;;10.29;50.86;100506.34;4960963;28;45557;-51
2022/04/06 03:23:15;;;;;;;;;3.75;3.00;;;;;10.28;50.79;100500.25;4960740;28;45720;-53
2022/04/06 03:25:41;;;;;;;;;1.75;1.00;;;;;10.26;50.88;100491.50;4960366;28;45485;-50
2022/04/06 03:28:07;;;;;;;;;3.00;1.50;;;;;10.27;51.28;100492.41;4960749;28;45242;-51
2022/04/06 03:30:33;;;;;;;;;2.00;2.00;;;;;10.28;51.10;100489.75;4960767;28;45410;-52
2022/04/06 03:32:58;;;;;;;;;2.50;2.00;;;;;10.32;51.13;100487.94;4960623;28;45462;-53
2022/04/06 03:35:23;;;;;;;;;1.00;1.00;;;;;10.33;50.87;100479.16;4959392;28;48237;-50
2022/04/06 03:37:52;;;;;;;;;2.00;2.00;;;;;10.33;50.98;100480.03;4960513;28;45244;-50
2022/04/06 03:40:18;;;;;;;;;2.50;2.50;;;;;10.32;51.30;100480.91;4959249;28;45373;-52
2022/04/06 03:42:43;;;;;;;;;2.00;2.00;;;;;10.34;51.20;100479.13;4960271;28;45318;-52
2022/04/06 03:45:09;;;;;;;;;2.25;2.00;;;;;10.34;51.19;100467.75;4960612;28;46029;-51
2022/04/06 03:47:36;;;;;;;;;3.00;3.00;;;;;10.34;51.11;100471.25;4960418;28;45374;-48
2022/04/06 03:50:03;;;;;;;;;1.50;1.50;;;;;10.35;51.09;100472.09;4960839;28;45244;-48
2022/04/06 03:52:28;;;;;;;;;1.00;1.00;;;;;10.32;50.99;100467.78;4947175;28;45620;-47
2022/04/06 03:54:55;;;;;;;;;1.00;1.00;;;;;10.32;51.29;100465.16;4960201;28;47304;-49
2022/04/06 03:57:20;;;;;;;;;2.25;2.00;;;;;10.31;50.97;100465.19;4961794;28;45304;-49
2022/04/06 03:59:45;;;;;;;;;2.00;2.00;;;;;10.30;51.03;100458.19;4964030;28;45302;-48
2022/04/06 04:02:11;;;;;;;;;1.00;1.00;;;;;10.30;51.04;100463.44;4962379;28;45802;-49
2022/04/06 04:04:37;;;;;;;;;2.00;2.00;;;;;10.32;51.05;100466.91;4963651;28;45421;-50
2022/04/06 04:07:02;;;;;;;;;1.00;1.00;;;;;10.28;51.08;100460.00;4962352;28;45359;-53
2022/04/06 04:09:30;;;;;;;;;2.25;2.25;;;;;10.31;51.03;100463.41;4958999;28;45354;-52
2022/04/06 04:11:59;;;;;;;;;2.00;1.75;;;;;10.32;51.28;100467.78;4960112;28;45330;-50
2022/04/06 04:14:25;;;;;;;;;2.00;2.00;;;;;10.28;51.13;100458.22;4963405;28;46548;-50
2022/04/06 04:16:50;;;;;;;;;2.00;2.00;;;;;10.32;51.44;100473.03;4962805;28;45322;-50
2022/04/06 04:19:17;;;;;;;;;1.75;1.75;;;;;10.32;51.29;100470.41;4963476;28;45500;-50
2022/04/06 04:21:43;;;;;;;;;2.00;0.00;;;;;10.32;51.23;100459.03;4962283;28;45513;-51
2022/04/06 04:24:09;;;;;;;;;2.00;1.75;;;;;10.32;51.36;100467.78;4963133;28;46274;-53
2022/04/06 04:26:36;;;;;;;;;2.00;1.00;;;;;10.27;51.14;100453.00;4962361;28;45346;-50
2022/04/06 04:29:03;;;;;;;;;2.00;2.00;;;;;10.29;51.29;100459.06;4961413;28;45437;-50
2022/04/06 04:31:28;;;;;;;;;2.50;2.00;;;;;10.29;51.45;100464.34;4962848;28;45329;-52
2022/04/06 04:33:54;;;;;;;;;2.00;1.75;;;;;10.29;51.28;100473.09;4963207;28;45497;-50
2022/04/06 04:36:19;;;;;;;;;3.75;2.50;;;;;10.28;51.44;100458.22;4963421;28;45450;-52
2022/04/06 04:38:45;;;;;;;;;2.00;1.00;;;;;10.28;51.35;100454.75;4963450;28;45200;-49
2022/04/06 04:41:11;;;;;;;;;1.25;1.25;;;;;10.26;51.22;100449.50;4958393;28;45554;-53
2022/04/06 04:43:36;;;;;;;;;4.00;2.50;;;;;10.23;51.31;100444.31;4953006;28;47177;-52
2022/04/06 04:46:03;;;;;;;;;4.00;2.25;;;;;10.21;51.52;100444.34;4963153;28;45509;-50
2022/04/06 04:48:28;;;;;;;;;3.00;1.50;;;;;10.21;51.25;100425.06;4962969;28;45362;-53
2022/04/06 04:50:54;;;;;;;;;1.75;1.75;;;;;10.18;51.60;100433.88;4959732;28;45468;-51
2022/04/06 04:53:19;;;;;;;;;1.50;1.50;;;;;10.19;51.57;100422.47;4952959;28;45485;-52
2022/04/06 04:55:44;;;;;;;;;3.00;3.00;;;;;10.19;51.40;100419.00;4962464;28;45416;-52
2022/04/06 04:58:10;;;;;;;;;2.75;2.00;;;;;10.14;51.58;100421.69;4960889;28;45398;-52
2022/04/06 05:00:36;;;;;;;;;3.50;1.75;;;;;10.17;51.59;100428.66;4962229;28;45519;-51
2022/04/06 05:03:02;;;;;;;;;1.00;1.00;;;;;10.17;51.47;100426.03;4961495;28;46913;-48
2022/04/06 05:05:28;;;;;;;;;3.25;3.25;;;;;10.14;51.57;100423.44;4962798;28;45326;-50
2022/04/06 05:07:57;;;;;;;;;3.75;3.75;;;;;10.20;51.34;100426.84;4962108;28;45544;-52
2022/04/06 05:10:23;;;;;;;;;3.25;2.00;;;;;10.21;51.71;100422.44;4952104;28;45468;-49
2022/04/06 05:12:48;;;;;;;;;2.75;2.75;;;;;10.21;51.49;100422.44;4962412;28;45268;-51
2022/04/06 05:15:14;;;;;;;;;3.00;2.25;;;;;10.23;51.77;100431.19;4961349;28;45342;-51
2022/04/06 05:17:40;;;;;;;;;2.50;2.50;;;;;10.23;51.74;100428.56;4962804;28;45397;-49
2022/04/06 05:20:10;;;;;;;;;4.75;3.25;;;;;10.23;51.56;100426.78;4962505;28;45334;-49
2022/04/06 05:22:35;;;;;;;;;4.00;3.00;;;;;10.27;51.61;100413.63;4968157;28;48233;-49
2022/04/06 05:25:04;;;;;;;;;2.75;2.75;;;;;10.27;51.67;100421.50;4962658;28;45386;-50
2022/04/06 05:27:50;;;;;;;;;5.00;5.00;;;;;10.28;51.69;100426.72;4963175;28;45432;-50
2022/04/06 05:30:18;;;;;;;;;3.50;3.50;;;;;10.30;51.71;100424.94;4950233;28;45415;-50
2022/04/06 05:32:44;;;;;;;;;3.25;3.00;;;;;10.34;51.74;100417.84;4963114;28;46045;-49
2022/04/06 05:35:13;;;;;;;;;6.75;4.75;;;;;10.33;51.58;100411.72;4962898;28;45279;-51
2022/04/06 05:37:40;;;;;;;;;5.00;4.00;;;;;10.36;51.71;100418.72;4961304;28;45323;-52
2022/04/06 05:40:07;;;;;;;;;3.25;3.25;;;;;10.36;51.76;100423.97;4962398;28;45334;-53
2022/04/06 05:42:33;;;;;;;;;7.00;7.00;;;;;10.36;51.71;100418.72;4961503;28;46387;-51
2022/04/06 05:44:59;;;;;;;;;5.00;4.00;;;;;10.38;51.52;100430.06;4961697;28;45361;-53
2022/04/06 05:47:25;;;;;;;;;6.50;3.75;;;;;10.38;51.91;100428.31;4963034;28;45318;-51
2022/04/06 05:49:54;;;;;;;;;5.50;5.00;;;;;10.37;51.98;100430.97;4967737;28;45151;-50
2022/04/06 05:52:20;;;;;;;;;6.25;4.00;;;;;10.37;51.63;100434.44;4960895;28;47541;-49
2022/04/06 05:54:45;;;;;;;;;6.25;4.25;;;;;10.37;52.08;100420.47;4962679;28;45387;-50
2022/04/06 05:57:11;;;;;;;;;5.75;4.00;;;;;10.38;51.99;100435.31;4962793;28;45306;-50
2022/04/06 05:59:36;;;;;;;;;3.00;3.00;;;;;10.33;52.06;100424.00;4964489;28;45509;-51
2022/04/06 06:02:05;;;;;;;;;10.00;6.25;;;;;10.37;51.88;100436.22;4962795;28;45349;-49
2022/04/06 06:04:31;;;;;;;;;7.25;6.00;;;;;10.32;52.13;100417.88;4963095;28;44636;-51
2022/04/06 06:06:57;;;;;;;;;9.50;6.25;;;;;10.33;51.88;100430.13;4963406;28;45227;-48
2022/04/06 06:09:23;;;;;;;;;4.25;4.25;;;;;10.35;51.91;100419.56;4957145;28;45576;-49
2022/04/06 06:11:48;;;;;;;;;5.50;5.50;;;;;10.35;51.95;100416.94;4955699;28;45460;-55
2022/04/06 06:14:13;;;;;;;;;4.50;4.00;;;;;10.36;52.16;100422.22;4960407;28;45327;-51
2022/04/06 06:16:39;;;;;;;;;9.00;6.00;;;;;10.35;52.09;100412.56;4961809;28;45315;-52
2022/04/06 06:19:04;;;;;;;;;3.50;3.50;;;;;10.38;51.92;100419.56;4962014;28;45404;-50
2022/04/06 06:21:32;;;;;;;;;5.50;5.25;;;;;10.38;52.10;100414.31;4961406;28;45375;-54
2022/04/06 06:24:02;;;;;;;;;5.00;5.00;;;;;10.39;52.15;100416.91;4961412;28;45343;-54
2022/04/06 06:26:28;;;;;;;;;9.75;6.00;;;;;10.40;52.07;100421.28;4961365;28;45495;-48
2022/04/06 06:28:53;;;;;;;;;5.75;2.75;;;;;10.38;51.96;100416.94;4961667;28;45503;-49
2022/04/06 06:31:18;;;;;;;;;6.00;4.25;;;;;10.40;52.13;100413.38;4961674;28;46249;-54
2022/04/06 06:33:44;;;;;;;;;6.25;4.00;;;;;10.43;52.07;100411.56;4961680;28;45288;-53
2022/04/06 06:36:09;;;;;;;;;4.50;4.50;;;;;10.42;52.17;100412.50;4961588;28;45391;-52
2022/04/06 06:38:34;;;;;;;;;5.25;4.00;;;;;10.44;52.01;100408.06;4960326;28;45331;-50
2022/04/06 06:41:00;;;;;;;;;6.00;6.00;;;;;10.44;51.85;100410.69;4961094;28;46096;-52
2022/04/06 06:43:25;;;;;;;;;2.00;2.00;;;;;10.45;51.88;100410.66;4961389;28;45460;-49
2022/04/06 06:45:50;;;;;;;;;3.00;0.00;;;;;10.42;52.16;100415.13;4961547;28;45460;-50
2022/04/06 06:48:15;;;;;;;;;5.50;4.25;;;;;10.43;51.92;100419.47;4961410;28;45537;-47
2022/04/06 06:50:41;;;;;;;;;4.25;4.00;;;;;10.42;52.03;100415.13;4959917;28;46092;-50
2022/04/06 06:53:06;;;;;;;;;6.75;5.75;;;;;10.43;52.03;100409.84;4948259;28;45365;-48
2022/04/06 06:55:32;;;;;;;;;3.75;3.50;;;;;10.44;52.13;100397.56;4959758;28;45587;-53
2022/04/06 06:57:57;;;;;;;;;5.50;5.00;;;;;10.47;52.10;100403.63;4961346;28;45199;-48
2022/04/06 07:00:22;;;;;;;;;7.00;4.50;;;;;10.51;52.16;100404.44;4961217;28;46123;-49
2022/04/06 07:02:48;;;;;;;;;8.00;4.00;;;;;10.54;52.26;100399.09;4961235;28;45335;-51
2022/04/06 07:05:13;;;;;;;;;5.25;5.00;;;;;10.56;52.20;100400.84;4961087;28;45817;-48
2022/04/06 07:07:56;;;;;;;;;3.50;3.00;;;;;10.59;52.26;100392.03;4959102;28;45292;-47
2022/04/06 07:10:23;;;;;;;;;12.25;11.25;;;;;10.61;52.05;100400.72;4958166;28;47516;-51
2022/04/06 07:12:49;;;;;;;;;5.75;4.75;;;;;10.61;52.29;100390.22;4960508;28;45243;-50
2022/04/06 07:15:15;;;;;;;;;8.00;3.50;;;;;10.63;52.17;100393.69;4960850;28;45513;-53
2022/04/06 07:17:40;;;;;;;;;7.75;5.50;;;;;10.64;52.32;100390.16;4960784;28;45244;-51
2022/04/06 07:20:06;;;;;;;;;4.25;3.00;;;;;10.63;52.15;100380.56;4959319;28;45502;-51
2022/04/06 07:22:32;;;;;;;;;4.00;4.00;;;;;10.65;52.29;100384.00;4960733;28;45294;-49
2022/04/06 07:24:57;;;;;;;;;5.00;5.00;;;;;10.70;52.35;100383.91;4960465;28;45428;-49
2022/04/06 07:27:23;;;;;;;;;5.00;5.00;;;;;10.69;52.26;100380.44;4959397;28;45514;-49
2022/04/06 07:29:48;;;;;;;;;4.50;4.25;;;;;10.71;52.33;100381.25;4959218;28;45377;-50
2022/04/06 07:32:13;;;;;;;;;6.50;5.00;;;;;10.76;52.35;100382.94;4962140;28;45327;-51
2022/04/06 07:34:39;;;;;;;;;2.25;2.25;;;;;10.78;52.23;100378.50;4964300;28;45555;-51
2022/04/06 07:37:04;;;;;;;;;6.25;6.25;;;;;10.81;52.22;100381.06;4964283;28;45634;-50
2022/04/06 07:39:30;;;;;;;;;4.75;3.00;;;;;10.80;52.40;100374.06;4964054;28;46564;-51
2022/04/06 07:41:58;;;;;;;;;5.25;3.75;;;;;10.84;52.26;100370.47;4964104;28;45375;-51
2022/04/06 07:44:23;;;;;;;;;5.50;4.50;;;;;10.85;52.37;100378.31;4962734;28;45402;-48
2022/04/06 07:46:50;;;;;;;;;5.00;4.00;;;;;10.91;52.25;100381.75;4962841;28;45659;-48
2022/04/06 07:49:16;;;;;;;;;6.00;6.00;;;;;10.93;52.18;100378.19;4963778;28;45319;-52
2022/04/06 07:51:41;;;;;;;;;2.50;2.50;;;;;10.93;52.35;100375.56;4954701;28;45413;-49
2022/04/06 07:54:07;;;;;;;;;4.00;4.00;;;;;10.97;52.27;100374.59;4960175;28;45476;-53
2022/04/06 07:56:32;;;;;;;;;4.25;4.00;;;;;10.99;52.34;100375.44;4963956;28;45303;-53
2022/04/06 07:58:57;;;;;;;;;4.25;3.50;;;;;11.01;52.32;100365.72;4963807;28;45326;-49
2022/04/06 08:01:23;;;;;;;;;3.75;3.75;;;;;11.03;52.06;100366.56;4963928;28;45318;-51
2022/04/06 08:03:51;;;;;;;;;6.25;5.25;;;;;11.06;52.25;100365.63;4963961;28;45283;-54
2022/04/06 08:06:17;;;;;;;;;4.25;4.00;;;;;11.08;52.15;100358.59;4963864;28;45173;-51
2022/04/06 08:08:42;;;;;;;;;5.50;5.25;;;;;11.13;52.06;100361.09;4963486;28;46331;-51
2022/04/06 08:11:08;;;;;;;;;5.25;3.75;;;;;11.14;51.63;100341.78;4954853;28;45354;-49
2022/04/06 08:13:33;;;;;;;;;3.75;3.75;;;;;11.15;51.70;100340.88;4963636;28;45311;-52
2022/04/06 08:15:59;;;;;;;;;3.00;3.00;;;;;11.17;51.92;100342.59;4963513;28;45164;-49
2022/04/06 08:18:25;;;;;;;;;3.00;3.00;;;;;11.21;51.75;100353.91;4963523;28;46165;-49
2022/04/06 08:20:50;;;;;;;;;5.00;5.00;;;;;11.22;51.80;100343.34;4963691;28;45502;-51
2022/04/06 08:23:20;;;;;;;;;4.25;4.00;;;;;11.20;52.08;100339.00;4963433;28;45164;-52
2022/04/06 08:25:46;;;;;;;;;6.75;5.00;;;;;11.24;51.81;100338.03;4952900;28;45458;-49
2022/04/06 08:28:12;;;;;;;;;4.00;3.25;;;;;11.27;51.65;100343.25;4960655;28;46366;-52
2022/04/06 08:30:42;;;;;;;;;3.00;3.00;;;;;11.29;51.81;100336.16;4963563;28;45194;-50
2022/04/06 08:33:07;;;;;;;;;3.00;1.50;;;;;11.33;51.63;100343.09;4963557;28;45342;-48
2022/04/06 08:35:33;;;;;;;;;2.50;2.50;;;;;11.32;51.75;100335.22;4962070;28;45455;-51
2022/04/06 08:37:58;;;;;;;;;4.00;4.00;;;;;11.36;51.79;100335.13;4963112;28;45739;-50
2022/04/06 08:40:26;;;;;;;;;4.00;3.75;;;;;11.41;51.62;100337.66;4963096;28;45298;-51
2022/04/06 08:42:51;;;;;;;;;4.00;3.25;;;;;11.41;51.98;100336.75;4963211;28;45584;-50
2022/04/06 08:45:16;;;;;;;;;6.00;6.00;;;;;11.45;51.74;100347.19;4963279;28;45158;-51
2022/04/06 08:47:45;;;;;;;;;6.50;6.50;;;;;11.49;51.57;100345.34;4963093;28;46152;-51
2022/04/06 08:50:11;;;;;;;;;4.75;3.00;;;;;11.48;51.50;100335.72;4963256;28;45319;-50
2022/04/06 08:52:38;;;;;;;;;5.25;4.75;;;;;11.54;51.56;100343.47;4961565;28;45276;-49
2022/04/06 08:55:04;;;;;;;;;5.25;5.00;;;;;11.57;51.71;100342.53;4961518;28;45469;-51
2022/04/06 08:57:32;;;;;;;;;7.25;5.25;;;;;11.58;51.72;100339.84;4962772;28;45383;-51
2022/04/06 08:59:57;;;;;;;;;3.50;3.00;;;;;11.62;51.49;100332.75;4963219;28;45259;-51
2022/04/06 09:02:23;;;;;;;;;3.50;3.50;;;;;11.64;51.56;100334.44;4962866;28;45880;-52
2022/04/06 09:04:57;;;;;;;;;6.25;5.25;;;;;11.66;51.76;100332.66;4963013;28;45133;-48
2022/04/06 09:07:24;;;;;;;;;6.25;6.25;;;;;11.69;51.61;100331.69;4945423;28;47098;-52
2022/04/06 09:09:54;;;;;;;;;5.25;5.25;;;;;11.71;51.56;100330.75;4954380;28;45299;-48
2022/04/06 09:12:22;;;;;;;;;6.00;5.25;;;;;11.74;51.82;100334.22;4962045;28;45793;-48
2022/04/06 09:14:48;;;;;;;;;6.50;6.50;;;;;11.76;51.73;100329.78;4963552;28;45235;-47
2022/04/06 09:17:19;;;;;;;;;3.00;2.00;;;;;11.79;51.69;100329.72;4958985;28;45351;-53
2022/04/06 09:19:47;;;;;;;;;7.00;6.00;;;;;11.83;51.59;100331.34;4951598;28;45319;-50
2022/04/06 09:22:13;;;;;;;;;6.75;6.00;;;;;11.85;51.44;100316.38;4963492;28;45392;-53
2022/04/06 09:24:38;;;;;;;;;6.25;3.00;;;;;11.89;51.35;100328.56;4964008;28;45232;-48
2022/04/06 09:27:04;;;;;;;;;10.25;7.50;;;;;11.91;51.40;100332.03;4962939;28;46041;-48
2022/04/06 09:29:31;;;;;;;;;8.00;5.25;;;;;11.91;51.48;100337.28;4972858;28;45208;-45
2022/04/06 09:32:06;;;;;;;;;5.25;5.25;;;;;11.94;51.35;100323.19;4967954;28;45531;-50
2022/04/06 09:34:33;;;;;;;;;7.00;5.00;;;;;11.92;51.48;100322.34;4971209;28;45544;-50
2022/04/06 09:36:58;;;;;;;;;4.25;4.00;;;;;11.96;51.34;100314.38;4974091;28;47127;-46
2022/04/06 09:39:44;;;;;;;;;4.75;4.00;;;;;12.01;51.32;100322.13;4975704;28;45448;-47
2022/04/06 09:42:17;;;;;;;;;7.00;5.50;;;;;12.06;51.19;100324.63;4978841;28;45397;-47
2022/04/06 09:47:40;;;;;;;;;5.00;5.00;;;;;12.03;51.66;100312.41;4975493;28;45712;-48
2022/04/06 09:50:08;;;;;;;;;7.00;6.00;;;;;12.08;51.23;100323.69;4977372;28;45453;-47
2022/04/06 09:52:36;;;;;;;;;7.25;5.25;;;;;12.09;51.36;100324.53;4975979;28;45409;-46
2022/04/06 09:55:09;;;;;;;;;6.25;4.50;;;;;12.12;51.29;100324.47;4979268;28;45409;-47
2022/04/06 09:57:52;;;;;;;;;4.75;4.50;;;;;12.15;51.34;100316.47;4978938;28;46349;-46
2022/04/06 10:00:23;;;;;;;;;5.75;5.00;;;;;12.14;51.28;100320.91;4980044;28;45484;-47
2022/04/06 10:03:01;;;;;;;;;5.25;3.75;;;;;12.20;51.58;100335.69;4980245;28;45469;-45
2022/04/06 10:05:29;;;;;;;;;3.00;2.00;;;;;12.21;51.56;100313.69;4978739;28;45345;-49
2022/04/06 10:07:56;;;;;;;;;6.50;6.50;;;;;12.25;51.36;100317.97;4978964;28;45326;-47
2022/04/06 10:10:23;;;;;;;;;4.50;3.00;;;;;12.28;51.25;100317.88;4964576;28;45494;-46
2022/04/06 10:12:49;;;;;;;;;4.50;4.00;;;;;12.33;51.13;100323.88;4978192;28;45330;-49
2022/04/06 10:15:17;;;;;;;;;4.00;4.00;;;;;12.34;50.82;100312.44;4975113;28;45464;-44
2022/04/06 10:17:42;;;;;;;;;5.00;5.00;;;;;12.38;51.02;100312.34;4970313;28;46607;-48
2022/04/06 10:20:26;;;;;;;;;2.00;2.00;;;;;12.39;51.05;100299.13;4972671;28;45371;-50
2022/04/06 10:23:22;;;;;;;;;2.50;2.50;;;;;12.41;51.00;100293.81;4978150;28;45369;-48
2022/04/06 10:25:56;;;;;;;;;4.00;2.25;;;;;12.41;51.06;100299.09;4969099;28;45418;-45
2022/04/06 10:28:22;;;;;;;;;3.75;1.50;;;;;12.43;51.08;100302.56;4973578;28;46224;-49
2022/04/06 10:31:11;;;;;;;;;5.25;3.50;;;;;12.46;50.71;100297.19;4978242;28;45409;-45
2022/04/06 10:33:38;;;;;;;;;6.00;5.00;;;;;12.43;51.02;100290.22;4976213;28;45246;-44
2022/04/06 10:36:21;;;;;;;;;4.50;4.00;;;;;12.48;51.09;100284.84;4975553;28;45410;-47
2022/04/06 10:39:19;;;;;;;;;2.75;2.00;;;;;12.51;51.03;100301.44;4969545;28;45382;-49
2022/04/06 10:42:14;;;;;;;;;4.25;3.00;;;;;12.56;50.72;100284.59;4930217;28;46268;-48
2022/04/06 10:44:41;;;;;;;;;5.00;4.50;;;;;12.57;50.75;100281.91;4963504;28;45408;-47
2022/04/06 10:47:08;;;;;;;;;6.00;4.00;;;;;12.62;50.55;100271.25;4969851;28;45792;-47
2022/04/06 10:49:34;;;;;;;;;5.00;5.00;;;;;12.63;50.39;100270.34;4973757;28;45251;-50
2022/04/06 10:52:22;;;;;;;;;4.00;4.00;;;;;12.63;50.67;100262.44;4974143;28;45254;-49
2022/04/06 10:54:48;;;;;;;;;3.00;3.00;;;;;12.64;50.63;100257.09;4971588;28;45420;-50
2022/04/06 10:57:14;;;;;;;;;5.00;4.00;;;;;12.64;50.64;100259.75;4962483;28;45472;-49
2022/04/06 10:59:39;;;;;;;;;4.00;4.00;;;;;12.70;50.33;100261.31;4961018;28;45496;-47
2022/04/06 11:02:20;;;;;;;;;4.00;4.00;;;;;12.72;50.38;100256.00;4962299;28;45359;-49
2022/04/06 11:04:47;;;;;;;;;7.25;5.75;;;;;12.74;50.53;100244.50;4959384;28;45481;-52
2022/04/06 11:07:17;;;;;;;;;6.25;5.50;;;;;12.75;50.35;100238.31;4960776;28;45499;-49
2022/04/06 11:12:35;;;;;;;;;6.75;6.25;;;;;12.79;50.74;100241.72;4974348;28;45287;-48
2022/04/06 11:15:00;;;;;;;;;4.50;3.75;;;;;12.86;50.78;100229.22;4966777;28;45321;-44
2022/04/06 11:17:35;;;;;;;;;5.50;5.50;;;;;12.81;50.43;100222.28;4968357;28;45325;-46
2022/04/06 11:20:16;;;;;;;;;6.75;5.00;;;;;12.86;50.46;100227.44;4970251;28;46189;-48
2022/04/06 11:22:54;;;;;;;;;4.00;4.00;;;;;12.84;50.42;100222.22;4966005;28;45421;-47
2022/04/06 11:25:22;;;;;;;;;6.50;5.25;;;;;12.84;50.46;100211.66;4971309;28;45459;-49
2022/04/06 11:27:48;;;;;;;;;6.50;6.50;;;;;12.82;50.46;100200.28;4975939;28;45582;-47
2022/04/06 11:30:19;;;;;;;;;7.75;6.00;;;;;12.84;50.16;100202.88;4974508;28;45400;-50
2022/04/06 11:32:59;;;;;;;;;5.00;4.00;;;;;12.81;50.14;100213.53;4974684;28;45494;-50